Time;durP1;ratioP1;P1;durP2;ratioP2;P2;SDS_P1;SDS_P2;PMS_P1;PMS_P2;Temp;Humidity;BMP_temperature;BMP_pressure;BME280_temperature;BME280_humidity;BME280_pressure;Samples;Min_cycle;Max_cycle;Signal;HPM_P1;HPM_P2
2022/05/19 02:48:19;;;;;;;4.82;1.85;;;16.80;88.30;;;;;;4996008;22;89349;-74
2022/05/19 02:50:46;;;;;;;2.25;1.20;;;16.70;88.50;;;;;;4932665;28;86910;-75
2022/05/19 02:53:12;;;;;;;2.80;0.95;;;16.60;88.90;;;;;;4933871;28;87874;-73
2022/05/19 02:55:41;;;;;;;3.15;1.23;;;16.60;89.60;;;;;;4933958;28;88193;-73
2022/05/19 02:58:08;;;;;;;3.70;1.10;;;16.60;89.90;;;;;;4938509;28;87116;-72
2022/05/19 03:00:34;;;;;;;4.53;1.25;;;16.60;89.90;;;;;;4936909;28;87027;-72
2022/05/19 03:03:00;;;;;;;4.57;1.27;;;16.60;90.00;;;;;;4937973;28;86456;-72
2022/05/19 03:05:33;;;;;;;3.97;1.30;;;16.50;90.10;;;;;;4937623;28;87627;-73
2022/05/19 03:07:59;;;;;;;3.22;1.50;;;16.40;90.20;;;;;;4938783;28;87192;-73
2022/05/19 03:10:25;;;;;;;3.05;1.30;;;16.40;90.40;;;;;;4929382;28;87971;-73
2022/05/19 03:12:53;;;;;;;4.80;1.42;;;16.40;90.60;;;;;;4938190;28;86965;-73
2022/05/19 03:15:19;;;;;;;3.17;1.63;;;16.30;90.80;;;;;;4938161;28;86979;-72
2022/05/19 03:17:45;;;;;;;4.88;1.50;;;16.40;90.80;;;;;;4937378;28;87007;-74
2022/05/19 03:20:11;;;;;;;4.63;1.30;;;16.30;90.80;;;;;;4931586;28;87695;-73
2022/05/19 03:22:37;;;;;;;4.70;1.20;;;16.30;91.00;;;;;;4936284;28;87192;-73
2022/05/19 03:25:05;;;;;;;2.80;1.42;;;16.30;91.00;;;;;;4931324;28;87443;-74
2022/05/19 03:27:31;;;;;;;4.15;1.20;;;16.30;91.40;;;;;;4935618;28;86471;-74
2022/05/19 03:29:57;;;;;;;3.45;1.20;;;16.30;91.30;;;;;;4929806;28;87401;-74
2022/05/19 03:32:22;;;;;;;3.45;1.48;;;16.30;91.50;;;;;;4931776;28;87162;-74
2022/05/19 03:34:48;;;;;;;4.22;1.48;;;16.30;91.30;;;;;;4933364;28;89013;-76
2022/05/19 03:37:14;;;;;;;3.38;1.40;;;16.30;91.30;;;;;;4923027;28;87708;-76
2022/05/19 03:39:40;;;;;;;4.25;1.42;;;16.30;91.30;;;;;;4927968;28;87592;-75
2022/05/19 03:42:07;;;;;;;4.43;1.70;;;16.30;91.80;;;;;;4933853;28;87608;-76
2022/05/19 03:44:34;;;;;;;3.45;1.52;;;16.30;92.40;;;;;;4926670;28;89158;-78
2022/05/19 03:47:00;;;;;;;4.88;1.70;;;16.30;92.20;;;;;;4921578;28;87146;-78
2022/05/19 03:49:25;;;;;;;3.03;1.77;;;16.30;91.90;;;;;;4917897;28;87563;-76
2022/05/19 03:51:51;;;;;;;6.68;1.83;;;16.40;92.20;;;;;;4918483;28;86306;-76
2022/05/19 03:54:17;;;;;;;4.55;1.63;;;16.40;91.80;;;;;;4908103;28;87227;-77
2022/05/19 03:56:42;;;;;;;4.95;1.25;;;16.50;91.70;;;;;;4913959;28;87087;-77
2022/05/19 03:59:08;;;;;;;3.35;1.45;;;16.60;91.20;;;;;;4907198;28;88284;-77
2022/05/19 04:01:34;;;;;;;5.40;1.42;;;16.70;90.70;;;;;;4913628;28;87024;-78
2022/05/19 04:04:00;;;;;;;4.75;1.60;;;16.70;90.70;;;;;;4905957;28;88884;-78
2022/05/19 04:06:26;;;;;;;3.45;1.63;;;16.80;91.10;;;;;;4915138;28;87048;-77
2022/05/19 04:08:52;;;;;;;5.75;1.60;;;17.00;90.80;;;;;;4911247;28;86774;-77
2022/05/19 04:11:17;;;;;;;6.07;1.90;;;17.10;90.30;;;;;;4913176;28;87129;-78
2022/05/19 04:13:43;;;;;;;5.68;1.60;;;17.40;89.50;;;;;;4915279;28;87318;-77
2022/05/19 04:16:09;;;;;;;2.47;1.20;;;17.70;87.60;;;;;;4915708;28;86237;-77
2022/05/19 04:18:35;;;;;;;3.08;1.20;;;18.30;84.80;;;;;;4911006;28;87689;-76
2022/05/19 04:21:01;;;;;;;4.68;1.30;;;18.80;83.10;;;;;;4915034;28;87303;-76
2022/05/19 04:23:27;;;;;;;3.58;1.10;;;19.30;80.30;;;;;;4913178;28;88193;-75
2022/05/19 04:25:53;;;;;;;4.13;1.60;;;19.90;77.30;;;;;;4916506;28;87067;-76
2022/05/19 04:28:19;;;;;;;5.07;1.52;;;20.40;76.10;;;;;;4915743;28;87057;-77
2022/05/19 04:30:45;;;;;;;3.67;1.15;;;20.80;73.40;;;;;;4910869;28;87179;-76
2022/05/19 04:33:11;;;;;;;5.43;1.73;;;21.30;72.10;;;;;;4911549;28;87665;-76
2022/05/19 04:35:37;;;;;;;6.60;1.75;;;21.80;69.50;;;;;;4913214;28;87357;-77
2022/05/19 04:38:15;;;;;;;7.43;1.88;;;22.10;68.10;;;;;;4913646;28;87005;-77
2022/05/19 04:40:43;;;;;;;5.20;1.73;;;22.10;67.00;;;;;;4910472;28;86547;-77
2022/05/19 04:43:10;;;;;;;5.40;1.70;;;22.10;67.40;;;;;;4907630;28;87398;-75
2022/05/19 04:45:36;;;;;;;5.15;1.73;;;22.50;65.40;;;;;;4913450;28;87360;-77
2022/05/19 04:48:02;;;;;;;9.60;1.77;;;22.60;65.20;;;;;;4912479;28;89184;-75
2022/05/19 04:50:28;;;;;;;6.70;1.83;;;22.70;64.70;;;;;;4911339;28;87392;-77
2022/05/19 04:52:58;;;;;;;4.10;1.73;;;23.10;63.80;;;;;;4908544;28;88533;-72
2022/05/19 04:55:24;;;;;;;4.78;1.90;;;24.00;62.00;;;;;;4910665;28;87104;-75
2022/05/19 04:57:50;;;;;;;5.53;2.30;;;24.20;59.90;;;;;;4916672;28;87108;-73
2022/05/19 05:00:16;;;;;;;5.50;2.17;;;24.60;59.40;;;;;;4911468;28;87340;-71
2022/05/19 05:02:42;;;;;;;6.10;2.08;;;24.70;58.40;;;;;;4909455;28;87097;-72
2022/05/19 05:05:08;;;;;;;8.40;1.73;;;23.80;59.10;;;;;;4911913;28;86629;-74
2022/05/19 05:07:34;;;;;;;5.80;2.38;;;24.00;59.40;;;;;;4907052;28;87075;-75
2022/05/19 05:09:59;;;;;;;7.78;2.53;;;24.20;58.70;;;;;;4912790;28;86953;-73
2022/05/19 05:12:26;;;;;;;5.85;2.63;;;24.90;59.40;;;;;;4909865;28;88475;-74
2022/05/19 05:14:53;;;;;;;6.47;2.53;;;26.10;55.10;;;;;;4911907;28;91224;-73
2022/05/19 05:17:21;;;;;;;5.45;2.45;;;25.80;55.10;;;;;;4916557;28;87139;-75
2022/05/19 05:19:47;;;;;;;5.82;2.88;;;25.10;56.70;;;;;;4914186;28;87092;-75
2022/05/19 05:22:13;;;;;;;6.25;1.95;;;25.80;55.40;;;;;;4914593;28;87216;-76
2022/05/19 05:24:38;;;;;;;4.88;2.45;;;26.70;55.40;;;;;;4913678;28;88271;-74
2022/05/19 05:27:05;;;;;;;5.15;2.38;;;28.00;53.50;;;;;;4916801;28;86770;-75
2022/05/19 05:29:31;;;;;;;3.60;2.20;;;29.50;49.40;;;;;;4919460;28;86719;-75
2022/05/19 05:31:57;;;;;;;3.03;1.83;;;30.20;48.20;;;;;;4909356;28;87285;-77
2022/05/19 05:34:24;;;;;;;5.50;2.33;;;30.40;47.60;;;;;;4912891;28;87060;-73
2022/05/19 05:36:49;;;;;;;3.45;1.80;;;31.10;46.80;;;;;;4911865;28;88294;-72
2022/05/19 05:39:15;;;;;;;4.13;1.85;;;31.60;45.70;;;;;;4915495;28;86943;-72
2022/05/19 05:41:41;;;;;;;7.47;3.53;;;32.00;44.90;;;;;;4920074;28;87313;-72
2022/05/19 05:44:07;;;;;;;3.65;1.92;;;32.60;44.10;;;;;;4911761;28;87016;-72
2022/05/19 05:46:33;;;;;;;3.88;2.28;;;32.50;43.70;;;;;;4914794;28;87016;-72
2022/05/19 05:48:58;;;;;;;6.53;1.65;;;32.90;44.10;;;;;;4918774;28;87406;-74
2022/05/19 05:51:24;;;;;;;5.40;2.13;;;33.10;42.90;;;;;;4917268;28;87809;-72
2022/05/19 05:53:50;;;;;;;4.38;2.38;;;33.50;42.90;;;;;;4912732;28;86893;-72
2022/05/19 05:56:20;;;;;;;5.53;2.63;;;33.70;42.20;;;;;;4909410;28;87068;-72
2022/05/19 05:58:46;;;;;;;4.43;2.22;;;33.80;42.70;;;;;;4913612;28;87032;-73
2022/05/19 06:01:14;;;;;;;5.43;2.13;;;34.30;41.40;;;;;;4914175;28;89274;-72
2022/05/19 06:03:40;;;;;;;3.28;2.20;;;35.00;41.40;;;;;;4908728;28;89525;-73
2022/05/19 06:06:06;;;;;;;10.05;2.40;;;35.70;40.20;;;;;;4914523;28;87081;-72
2022/05/19 06:08:32;;;;;;;4.47;2.63;;;36.40;38.70;;;;;;4915227;28;87983;-72
2022/05/19 06:10:59;;;;;;;4.20;2.85;;;36.50;38.20;;;;;;4909958;28;87330;-73
2022/05/19 06:13:26;;;;;;;4.57;2.50;;;36.70;39.10;;;;;;4913826;28;87070;-72
2022/05/19 06:15:52;;;;;;;4.45;2.85;;;37.50;37.80;;;;;;4913265;28;86793;-73
2022/05/19 06:18:18;;;;;;;4.82;2.22;;;37.90;37.10;;;;;;4911660;28;86324;-73
2022/05/19 06:20:44;;;;;;;7.63;2.63;;;38.40;37.00;;;;;;4911678;28;89952;-74
2022/05/19 06:23:11;;;;;;;4.15;2.28;;;38.60;35.50;;;;;;4913937;28;87149;-73
2022/05/19 06:25:37;;;;;;;2.92;2.47;;;38.60;36.50;;;;;;4911423;28;87989;-73
2022/05/19 06:28:02;;;;;;;3.60;2.20;;;39.00;35.80;;;;;;4917595;28;87114;-73
2022/05/19 06:30:30;;;;;;;4.90;2.85;;;39.90;35.00;;;;;;4912639;28;87020;-73
2022/05/19 06:32:56;;;;;;;6.90;2.83;;;39.70;35.00;;;;;;4912973;28;87055;-73
2022/05/19 06:35:29;;;;;;;4.38;2.75;;;39.80;35.20;;;;;;4912956;28;87598;-73
2022/05/19 06:37:55;;;;;;;5.28;2.15;;;40.40;34.90;;;;;;4916198;28;86997;-72
2022/05/19 06:40:24;;;;;;;3.10;2.53;;;40.60;34.30;;;;;;4917493;28;87758;-73
2022/05/19 06:42:50;;;;;;;4.22;2.78;;;40.60;34.50;;;;;;4917361;28;87331;-72
2022/05/19 06:45:18;;;;;;;3.45;2.97;;;40.30;34.10;;;;;;4913624;28;87299;-73
2022/05/19 06:47:44;;;;;;;5.10;2.75;;;40.50;33.50;;;;;;4909967;28;87091;-73
2022/05/19 06:50:13;;;;;;;4.82;3.38;;;40.10;33.80;;;;;;4910613;28;88150;-73
2022/05/19 06:52:47;;;;;;;;;;;40.20;33.70;;;;;;4909936;28;87430;-72
2022/05/19 06:55:15;;;;;;;5.68;3.05;;;40.80;34.60;;;;;;4917863;28;86947;-73
2022/05/19 06:57:41;;;;;;;6.40;3.63;;;41.40;32.90;;;;;;4913777;28;87315;-72
2022/05/19 07:00:09;;;;;;;3.78;3.10;;;41.60;32.40;;;;;;4905685;28;87589;-73
2022/05/19 07:02:34;;;;;;;5.05;3.03;;;41.50;32.80;;;;;;4912045;28;89128;-72
2022/05/19 07:05:00;;;;;;;5.95;3.50;;;42.20;32.20;;;;;;4917711;28;87102;-73
2022/05/19 07:07:26;;;;;;;4.30;3.50;;;41.80;32.30;;;;;;4909914;28;86281;-73
2022/05/19 07:09:52;;;;;;;5.40;3.97;;;42.10;32.00;;;;;;4906615;28;87203;-74
2022/05/19 07:12:24;;;;;;;3.92;3.53;;;42.10;32.60;;;;;;4912851;28;87429;-74
2022/05/19 07:14:51;;;;;;;4.30;3.50;;;42.50;32.10;;;;;;4911297;28;88703;-74
2022/05/19 07:17:18;;;;;;;4.50;3.10;;;43.10;31.70;;;;;;4908359;28;87146;-74
2022/05/19 07:22:29;;;;;;;5.38;3.40;;;44.40;31.10;;;;;;4907951;28;87063;-74
2022/05/19 07:24:55;;;;;;;4.70;3.53;;;45.40;30.00;;;;;;4910018;28;87208;-73
2022/05/19 07:27:21;;;;;;;5.13;4.35;;;46.20;30.20;;;;;;4912640;28;87152;-74
2022/05/19 07:29:47;;;;;;;7.35;3.63;;;47.50;29.80;;;;;;4907370;28;87140;-74
2022/05/19 07:32:13;;;;;;;6.38;3.05;;;46.60;29.50;;;;;;4916607;28;89860;-73
2022/05/19 07:34:40;;;;;;;6.80;6.05;;;43.70;31.00;;;;;;4915452;28;87071;-73
2022/05/19 07:37:06;;;;;;;4.78;3.05;;;43.10;32.70;;;;;;4917282;28;86984;-73
2022/05/19 07:39:32;;;;;;;6.70;4.18;;;44.70;32.30;;;;;;4915746;28;88235;-74
2022/05/19 07:41:58;;;;;;;6.03;3.92;;;46.40;29.60;;;;;;4917548;28;88285;-75
2022/05/19 07:44:26;;;;;;;10.68;3.90;;;44.70;29.80;;;;;;4916116;28;87132;-74
2022/05/19 07:46:53;;;;;;;4.85;4.35;;;44.70;30.90;;;;;;4915883;28;87080;-74
2022/05/19 07:49:19;;;;;;;6.10;3.80;;;45.80;30.30;;;;;;4917392;28;88173;-73
2022/05/19 07:51:47;;;;;;;6.05;4.70;;;47.00;29.80;;;;;;4916611;28;87219;-74
2022/05/19 07:54:19;;;;;;;7.28;6.57;;;48.80;29.20;;;;;;4915972;28;87055;-73
2022/05/19 07:56:45;;;;;;;7.63;6.07;;;48.40;29.10;;;;;;4916978;28;86036;-74
2022/05/19 07:59:12;;;;;;;6.07;4.72;;;48.00;29.00;;;;;;4916510;28;87436;-74
2022/05/19 08:01:39;;;;;;;5.32;4.82;;;47.10;29.60;;;;;;4916734;28;87412;-74
2022/05/19 08:04:06;;;;;;;6.22;5.15;;;47.20;29.80;;;;;;4920730;28;88354;-74
2022/05/19 08:06:33;;;;;;;8.25;4.45;;;47.80;29.80;;;;;;4919552;28;87003;-75
2022/05/19 08:09:00;;;;;;;6.30;5.70;;;48.30;28.90;;;;;;4916348;28;88323;-74
2022/05/19 08:11:27;;;;;;;6.22;5.40;;;49.40;28.70;;;;;;4916546;28;87921;-74
2022/05/19 08:16:37;;;;;;;5.70;5.10;;;50.00;28.20;;;;;;4916663;28;87031;-74
2022/05/19 08:19:03;;;;;;;6.25;5.38;;;50.10;27.90;;;;;;4916890;28;86857;-74
2022/05/19 08:21:31;;;;;;;7.60;5.07;;;50.40;27.80;;;;;;4916834;28;87389;-74
2022/05/19 08:23:56;;;;;;;7.30;6.50;;;50.80;27.80;;;;;;4916252;28;87319;-74
2022/05/19 08:26:22;;;;;;;6.88;6.07;;;50.20;28.50;;;;;;4916361;28;86997;-74
2022/05/19 08:28:49;;;;;;;5.93;5.32;;;49.70;28.00;;;;;;4915662;28;88093;-74
2022/05/19 08:31:21;;;;;;;7.18;6.47;;;50.40;27.90;;;;;;4912929;28;88299;-74
2022/05/19 08:33:49;;;;;;;6.57;5.07;;;50.10;27.90;;;;;;4916126;28;87354;-74
2022/05/19 08:36:14;;;;;;;6.78;5.88;;;50.10;27.90;;;;;;4916670;28;87564;-75
2022/05/19 08:38:42;;;;;;;9.85;6.80;;;50.50;28.50;;;;;;4916170;28;87833;-73
2022/05/19 08:41:35;;;;;;;12.23;5.85;;;50.90;27.50;;;;;;4916152;28;86979;-74
2022/05/19 08:44:10;;;;;;;9.48;6.85;;;50.30;27.90;;;;;;4913222;28;89661;-74
2022/05/19 08:46:40;;;;;;;5.80;5.20;;;51.80;27.30;;;;;;4917620;28;85879;-75
2022/05/19 08:49:14;;;;;;;7.68;5.90;;;51.30;27.10;;;;;;4919238;28;88843;-74
2022/05/19 08:51:47;;;;;;;5.88;5.30;;;50.20;27.80;;;;;;4918043;28;87334;-74
2022/05/19 08:54:17;;;;;;;15.38;5.53;;;49.70;28.50;;;;;;4917639;28;88491;-74
2022/05/19 08:56:53;;;;;;;4.95;4.50;;;48.00;28.40;;;;;;4918927;28;86959;-73
2022/05/19 08:59:52;;;;;;;18.90;4.45;;;45.60;30.10;;;;;;4919743;28;88213;-75
2022/05/19 09:02:43;;;;;;;9.85;4.65;;;46.50;31.50;;;;;;4916437;28;87540;-74
2022/05/19 09:05:12;;;;;;;4.25;3.85;;;48.10;29.20;;;;;;4890287;28;87063;-74
2022/05/19 09:08:10;;;;;;;6.65;4.70;;;48.80;28.80;;;;;;4917745;28;87052;-74
2022/05/19 09:10:45;;;;;;;6.78;5.13;;;49.60;28.90;;;;;;4903818;28;87007;-74
2022/05/19 09:13:16;;;;;;;6.53;5.78;;;50.40;28.30;;;;;;4916866;28;87417;-75
2022/05/19 09:15:44;;;;;;;6.93;5.38;;;51.70;28.30;;;;;;4919382;28;86647;-75
2022/05/19 09:18:14;;;;;;;7.18;6.47;;;52.80;28.00;;;;;;4916917;28;87181;-74
2022/05/19 09:20:53;;;;;;;7.50;5.32;;;51.60;28.40;;;;;;4916802;28;88454;-75
2022/05/19 09:23:20;;;;;;;6.93;6.10;;;51.30;28.70;;;;;;4913800;28;89288;-74
2022/05/19 09:26:20;;;;;;;7.18;6.47;;;51.70;27.90;;;;;;4916846;28;86997;-74
2022/05/19 09:28:45;;;;;;;;;;;53.00;28.00;;;;;;4910145;28;86772;-74
2022/05/19 09:31:13;;;;;;;9.02;8.15;;;54.20;27.40;;;;;;4915677;28;87372;-74
2022/05/19 09:33:43;;;;;;;8.23;7.22;;;54.80;27.40;;;;;;4911010;28;86996;-74
2022/05/19 09:36:12;;;;;;;9.13;8.20;;;55.00;27.40;;;;;;4911990;28;86788;-74
2022/05/19 09:38:47;;;;;;;9.40;7.53;;;55.00;27.60;;;;;;4914692;28;86438;-74
2022/05/19 09:41:32;;;;;;;9.23;8.48;;;55.80;27.00;;;;;;4911203;28;88202;-75
2022/05/19 09:43:59;;;;;;;7.85;7.05;;;56.70;26.70;;;;;;4911870;28;87254;-74
2022/05/19 09:46:52;;;;;;;9.15;7.05;;;56.70;26.80;;;;;;4915649;28;88351;-75
2022/05/19 09:49:29;;;;;;;9.68;8.68;;;56.40;26.50;;;;;;4911643;28;87107;-75
2022/05/19 09:52:04;;;;;;;12.32;7.57;;;55.70;26.80;;;;;;4911292;28;87091;-74
2022/05/19 09:54:32;;;;;;;10.23;8.85;;;54.50;27.60;;;;;;4909951;28;88137;-75
2022/05/19 09:57:10;;;;;;;10.23;8.93;;;54.70;28.40;;;;;;4917708;28;87041;-75
2022/05/19 09:59:45;;;;;;;14.43;12.70;;;54.60;27.10;;;;;;4917147;28;87003;-75
2022/05/19 10:02:38;;;;;;;17.10;13.60;;;55.00;27.40;;;;;;4915210;28;88247;-75
2022/05/19 10:05:19;;;;;;;13.25;11.13;;;54.10;27.90;;;;;;4926309;28;88172;-75
2022/05/19 10:07:49;;;;;;;10.10;9.10;;;50.40;28.80;;;;;;4916020;28;87109;-74
2022/05/19 10:10:27;;;;;;;12.63;8.55;;;47.50;31.80;;;;;;4916246;28;87033;-75
2022/05/19 10:12:59;;;;;;;7.95;6.60;;;43.40;34.00;;;;;;4917664;28;88432;-75
2022/05/19 10:15:37;;;;;;;13.10;9.82;;;41.20;38.20;;;;;;4917709;28;88235;-74
2022/05/19 10:18:22;;;;;;;7.55;4.63;;;38.60;40.00;;;;;;4916553;28;87148;-74
2022/05/19 10:21:01;;;;;;;13.90;8.75;;;36.30;43.60;;;;;;4911589;28;87553;-75
2022/05/19 10:23:45;;;;;;;6.43;4.78;;;34.80;44.00;;;;;;4914060;28;87556;-75
2022/05/19 10:26:41;;;;;;;5.57;3.53;;;33.60;46.20;;;;;;4909586;28;86999;-74
2022/05/19 10:32:27;;;;;;;6.43;2.67;;;32.70;47.80;;;;;;4913747;28;86430;-74
2022/05/19 10:35:23;;;;;;;4.47;2.83;;;32.60;49.50;;;;;;4912018;28;87517;-74
2022/05/19 10:37:49;;;;;;;4.30;2.63;;;32.60;49.60;;;;;;4903968;28;87196;-74
2022/05/19 10:40:24;;;;;;;8.75;3.15;;;32.30;49.00;;;;;;4916147;28;88332;-75
2022/05/19 10:42:56;;;;;;;7.72;5.05;;;32.10;49.80;;;;;;4910103;28;87677;-74
2022/05/19 10:45:27;;;;;;;6.85;2.92;;;32.20;49.40;;;;;;4916250;28;87711;-74
2022/05/19 10:48:27;;;;;;;5.45;3.38;;;32.00;51.90;;;;;;4910691;28;87253;-74
2022/05/19 10:51:15;;;;;;;8.95;3.08;;;32.20;50.60;;;;;;4916527;28;87352;-74
2022/05/19 10:53:54;;;;;;;6.07;3.28;;;32.00;51.90;;;;;;4909345;28;88010;-74
2022/05/19 10:56:34;;;;;;;5.47;3.17;;;32.10;51.40;;;;;;4912618;28;87205;-74
2022/05/19 10:59:31;;;;;;;5.07;3.50;;;32.10;52.60;;;;;;4914086;28;87258;-74
2022/05/19 11:02:10;;;;;;;6.93;3.10;;;32.00;50.60;;;;;;4903900;28;87457;-75
2022/05/19 11:05:10;;;;;;;6.57;3.05;;;32.00;51.50;;;;;;4912816;28;86979;-73
2022/05/19 11:07:54;;;;;;;6.90;3.00;;;31.80;51.20;;;;;;4914351;28;88467;-76
2022/05/19 11:10:35;;;;;;;6.40;3.00;;;31.80;52.30;;;;;;4912517;28;87918;-75
2022/05/19 11:13:47;;;;;;;6.80;2.70;;;31.60;53.70;;;;;;4909048;28;87493;-74
2022/05/19 11:16:32;;;;;;;6.25;2.70;;;31.80;51.70;;;;;;4909682;28;87136;-75
2022/05/19 11:19:08;;;;;;;10.27;2.72;;;31.80;54.30;;;;;;4915561;28;87694;-74
2022/05/19 11:21:53;;;;;;;8.68;2.78;;;32.00;52.70;;;;;;4916496;28;87066;-74
2022/05/19 11:24:25;;;;;;;8.02;3.17;;;32.00;50.80;;;;;;4909578;28;87199;-74
2022/05/19 11:27:07;;;;;;;5.28;2.92;;;31.70;49.90;;;;;;4916312;28;86390;-74
2022/05/19 11:29:51;;;;;;;7.18;2.58;;;31.60;51.00;;;;;;4916844;28;87685;-73
2022/05/19 11:32:27;;;;;;;5.43;2.50;;;31.60;47.50;;;;;;4916281;28;87672;-74
2022/05/19 11:35:25;;;;;;;20.33;3.20;;;31.60;46.70;;;;;;4914681;28;88041;-73
2022/05/19 11:38:13;;;;;;;5.10;2.25;;;31.40;44.60;;;;;;4917525;28;86973;-74
2022/05/19 11:40:45;;;;;;;;;;;31.30;46.50;;;;;;4917502;28;87599;-74
2022/05/19 11:43:36;;;;;;;6.28;2.08;;;31.30;45.00;;;;;;4918829;28;86759;-74
2022/05/19 11:46:22;;;;;;;7.25;2.42;;;31.40;46.10;;;;;;4916953;28;87113;-74
2022/05/19 11:55:19;;;;;;;17.27;2.50;;;31.20;45.90;;;;;;4916811;28;86987;-74
2022/05/19 11:57:48;;;;;;;9.45;2.00;;;31.30;45.30;;;;;;4911392;28;87042;-74
2022/05/19 12:00:24;;;;;;;5.95;2.28;;;31.50;48.50;;;;;;4916578;28;87062;-75
2022/05/19 12:02:52;;;;;;;6.60;2.60;;;31.50;44.00;;;;;;4915944;28;88002;-73
2022/05/19 12:05:52;;;;;;;6.30;2.40;;;31.40;47.90;;;;;;4917773;28;88191;-74
2022/05/19 12:08:29;;;;;;;8.27;2.63;;;31.30;48.20;;;;;;4911413;28;87083;-74
2022/05/19 12:11:08;;;;;;;5.68;2.33;;;31.30;47.70;;;;;;4908454;28;86916;-74
2022/05/19 12:13:36;;;;;;;7.28;2.88;;;31.30;46.40;;;;;;4908735;28;88115;-74
2022/05/19 12:16:11;;;;;;;7.65;2.33;;;31.40;48.70;;;;;;4913197;28;87901;-75
2022/05/19 12:19:03;;;;;;;7.75;2.35;;;31.10;49.50;;;;;;4916534;28;87780;-74
2022/05/19 12:21:39;;;;;;;5.78;2.70;;;31.10;48.50;;;;;;4909617;28;86373;-75
2022/05/19 12:24:11;;;;;;;6.28;2.55;;;30.90;48.30;;;;;;4906529;28;87315;-75
2022/05/19 12:27:04;;;;;;;6.20;2.65;;;30.90;49.60;;;;;;4914812;28;87268;-74
2022/05/19 12:29:39;;;;;;;5.20;2.20;;;30.90;48.20;;;;;;4903715;28;87940;-74
2022/05/19 12:32:10;;;;;;;;;;;30.90;45.30;;;;;;4903744;28;86949;-74
2022/05/19 12:34:44;;;;;;;8.32;2.17;;;30.90;48.10;;;;;;4917324;28;86892;-74
2022/05/19 12:37:33;;;;;;;6.22;2.10;;;30.90;46.80;;;;;;4915944;28;86914;-74
2022/05/19 12:40:30;;;;;;;8.98;2.33;;;30.80;48.50;;;;;;4916598;28;87040;-74
2022/05/19 12:43:21;;;;;;;6.50;2.15;;;31.00;47.20;;;;;;4902055;28;87124;-74
2022/05/19 12:45:53;;;;;;;6.45;2.58;;;31.10;46.70;;;;;;4911997;28;87788;-74
2022/05/19 12:48:21;;;;;;;13.82;2.20;;;31.10;45.40;;;;;;4915974;28;87320;-74
2022/05/19 12:50:53;;;;;;;7.32;3.42;;;31.10;46.40;;;;;;4915031;28;87154;-75
2022/05/19 12:53:21;;;;;;;7.72;2.70;;;31.00;47.60;;;;;;4912417;28;87016;-74
2022/05/19 12:55:50;;;;;;;6.53;2.53;;;31.10;49.60;;;;;;4909484;28;88720;-76
2022/05/19 12:58:37;;;;;;;;;;;31.10;49.00;;;;;;4915616;28;87666;-75
2022/05/19 13:01:14;;;;;;;14.90;2.53;;;31.30;46.70;;;;;;4912594;28;87013;-74
2022/05/19 13:03:42;;;;;;;7.93;2.85;;;31.40;46.00;;;;;;4911258;28;86906;-73
2022/05/19 13:06:12;;;;;;;5.78;2.13;;;31.30;46.70;;;;;;4912443;28;87086;-75
2022/05/19 13:08:43;;;;;;;7.57;3.40;;;31.30;48.30;;;;;;4904255;28;87099;-74
2022/05/19 13:11:19;;;;;;;8.68;2.60;;;31.40;48.40;;;;;;4914326;28;87012;-74
2022/05/19 13:14:05;;;;;;;6.45;2.50;;;31.50;46.50;;;;;;4915867;28;86331;-74
2022/05/19 13:16:37;;;;;;;8.82;2.42;;;31.50;47.70;;;;;;4916527;28;87928;-74
2022/05/19 13:19:11;;;;;;;5.60;2.40;;;31.30;48.90;;;;;;4912414;28;87075;-75
2022/05/19 13:21:58;;;;;;;4.25;2.20;;;31.40;50.60;;;;;;4917069;28;88449;-74
2022/05/19 13:24:27;;;;;;;3.95;2.30;;;31.20;49.20;;;;;;4910957;28;86977;-74
2022/05/19 13:32:33;;;;;;;5.38;2.28;;;30.90;47.60;;;;;;4915676;28;87017;-76
2022/05/19 13:35:02;;;;;;;7.43;2.45;;;31.00;47.30;;;;;;4899827;28;87146;-74
2022/05/19 13:37:32;;;;;;;5.47;2.38;;;30.90;47.50;;;;;;4912776;28;87019;-76
2022/05/19 13:40:16;;;;;;;6.68;2.10;;;30.90;47.20;;;;;;4919378;28;86946;-74
2022/05/19 13:43:04;;;;;;;6.90;2.50;;;30.90;46.10;;;;;;4915499;28;87431;-74
2022/05/19 13:45:49;;;;;;;3.63;2.10;;;31.00;48.30;;;;;;4896777;28;87133;-74
2022/05/19 13:48:36;;;;;;;5.80;1.85;;;31.10;46.90;;;;;;4916211;28;89165;-74
2022/05/19 13:51:08;;;;;;;8.32;2.83;;;31.10;44.60;;;;;;4915290;28;88389;-75
2022/05/19 13:53:36;;;;;;;7.43;3.70;;;31.20;45.70;;;;;;4917827;28;87079;-74
2022/05/19 13:56:02;;;;;;;7.55;2.70;;;31.30;46.00;;;;;;4906597;28;87025;-74
2022/05/19 13:58:29;;;;;;;7.55;2.10;;;31.40;45.50;;;;;;4917879;28;87614;-74
2022/05/19 14:00:55;;;;;;;5.63;2.20;;;31.30;45.40;;;;;;4900408;28;90079;-75
2022/05/19 14:03:23;;;;;;;10.80;2.80;;;31.40;46.50;;;;;;4910967;28;86948;-74
2022/05/19 14:05:50;;;;;;;4.65;2.55;;;31.40;45.00;;;;;;4915339;28;86330;-74
2022/05/19 14:08:20;;;;;;;6.38;2.10;;;31.40;44.30;;;;;;4918070;28;87485;-76
2022/05/19 14:10:57;;;;;;;5.50;2.30;;;31.70;44.30;;;;;;4912290;28;89251;-73
2022/05/19 14:13:26;;;;;;;4.82;2.10;;;31.80;44.90;;;;;;4916622;28;87775;-74
2022/05/19 14:16:01;;;;;;;9.73;2.75;;;31.80;45.00;;;;;;4910857;28;87214;-74
2022/05/19 14:18:47;;;;;;;4.88;1.80;;;31.90;45.10;;;;;;4917642;28;87270;-74
2022/05/19 14:21:21;;;;;;;4.68;2.63;;;31.70;44.70;;;;;;4914513;28;88280;-75
2022/05/19 14:23:56;;;;;;;4.70;1.88;;;31.30;45.40;;;;;;4915164;28;87035;-74
2022/05/19 14:26:33;;;;;;;5.22;1.98;;;31.00;45.20;;;;;;4913406;28;86890;-74
2022/05/19 14:29:02;;;;;;;8.63;1.95;;;30.90;46.60;;;;;;4917924;28;87283;-74
2022/05/19 14:31:48;;;;;;;8.07;3.42;;;31.00;46.00;;;;;;4910726;28;87039;-74
2022/05/19 14:34:20;;;;;;;6.15;2.08;;;31.20;46.60;;;;;;4918048;28;86804;-75
2022/05/19 14:37:16;;;;;;;9.05;3.63;;;31.30;47.30;;;;;;4908041;28;87055;-75
2022/05/19 14:39:48;;;;;;;7.97;2.60;;;31.10;46.80;;;;;;4908282;28;88487;-74
2022/05/19 14:45:09;;;;;;;4.22;2.20;;;31.00;47.80;;;;;;4908898;28;87622;-74
2022/05/19 14:47:43;;;;;;;6.22;2.55;;;30.80;47.20;;;;;;4909198;28;87723;-75
2022/05/19 14:50:24;;;;;;;4.85;2.22;;;30.80;47.90;;;;;;4906712;28;87688;-75
2022/05/19 14:52:54;;;;;;;6.50;3.42;;;30.60;48.00;;;;;;4906845;28;87509;-75
2022/05/19 14:55:31;;;;;;;3.92;1.73;;;30.30;48.80;;;;;;4905768;28;87130;-75
2022/05/19 14:57:59;;;;;;;7.25;1.42;;;29.60;45.00;;;;;;4907677;28;86158;-75
2022/05/19 15:00:30;;;;;;;4.38;1.00;;;28.90;43.30;;;;;;4911433;28;86790;-75
2022/05/19 15:02:56;;;;;;;7.38;0.95;;;28.10;43.40;;;;;;4914111;28;86973;-75
2022/05/19 15:05:24;;;;;;;2.28;0.65;;;27.60;45.20;;;;;;4910514;28;88026;-65
2022/05/19 15:07:53;;;;;;;4.32;0.73;;;27.30;48.10;;;;;;4915982;28;87555;-66
2022/05/19 15:10:23;;;;;;;1.88;0.50;;;27.00;48.40;;;;;;4911762;28;87062;-66
2022/05/19 15:12:50;;;;;;;2.85;0.70;;;26.70;48.50;;;;;;4911477;28;89006;-66
2022/05/19 15:15:17;;;;;;;2.33;0.57;;;26.60;47.90;;;;;;4904581;28;87433;-66
2022/05/19 15:17:43;;;;;;;6.57;0.60;;;26.50;48.60;;;;;;4909079;28;87134;-66
2022/05/19 15:20:10;;;;;;;1.80;0.40;;;26.40;48.00;;;;;;4916570;28;87048;-66
2022/05/19 15:22:37;;;;;;;3.90;0.60;;;26.30;47.30;;;;;;4904525;28;87351;-65
2022/05/19 15:25:04;;;;;;;2.08;0.95;;;26.20;46.60;;;;;;4912490;28;87627;-66
2022/05/19 15:27:32;;;;;;;1.45;0.40;;;26.10;47.50;;;;;;4905809;28;87180;-66
2022/05/19 15:29:58;;;;;;;2.30;0.68;;;25.90;47.00;;;;;;4901238;28;89448;-66
2022/05/19 15:32:25;;;;;;;3.92;0.90;;;26.00;46.00;;;;;;4904824;28;87396;-66
2022/05/19 15:34:51;;;;;;;3.35;0.50;;;26.00;47.70;;;;;;4910319;28;87250;-66
2022/05/19 15:37:17;;;;;;;1.65;0.50;;;25.80;48.00;;;;;;4905029;28;86880;-65
2022/05/19 15:39:44;;;;;;;2.30;0.50;;;25.50;49.90;;;;;;4908850;28;87574;-66
2022/05/19 15:42:11;;;;;;;8.93;0.65;;;25.40;52.30;;;;;;4916562;28;87581;-66
2022/05/19 15:44:37;;;;;;;2.65;0.73;;;25.20;54.30;;;;;;4912822;28;87272;-66
2022/05/19 15:47:04;;;;;;;7.22;0.57;;;24.70;56.10;;;;;;4902054;28;87610;-66
2022/05/19 15:49:31;;;;;;;3.72;0.50;;;24.50;55.80;;;;;;4908651;28;88587;-66
2022/05/19 15:51:58;;;;;;;2.10;0.43;;;24.20;57.50;;;;;;4911562;28;88585;-65
2022/05/19 15:54:24;;;;;;;3.40;0.70;;;24.20;55.50;;;;;;4912115;28;87847;-66
2022/05/19 15:56:54;;;;;;;2.75;0.50;;;24.20;54.10;;;;;;4904638;28;87331;-66
2022/05/19 15:59:20;;;;;;;1.25;0.63;;;24.30;53.50;;;;;;4914013;28;89085;-66
2022/05/19 16:01:47;;;;;;;1.10;0.47;;;24.60;54.20;;;;;;4914613;28;87412;-66
2022/05/19 16:04:13;;;;;;;1.98;0.68;;;24.70;54.70;;;;;;4917688;28;87286;-66
2022/05/19 16:06:39;;;;;;;2.63;0.30;;;24.70;54.40;;;;;;4914279;28;86639;-65
2022/05/19 16:09:05;;;;;;;4.78;0.40;;;24.70;54.30;;;;;;4914277;28;88201;-66
2022/05/19 16:11:32;;;;;;;5.03;0.43;;;24.70;54.40;;;;;;4915501;28;87661;-66
2022/05/19 16:13:59;;;;;;;1.40;0.40;;;24.60;55.20;;;;;;4915238;28;87024;-66
2022/05/19 16:16:26;;;;;;;2.42;0.43;;;24.70;55.90;;;;;;4912292;28;86700;-66
2022/05/19 16:18:53;;;;;;;1.85;0.38;;;24.60;56.70;;;;;;4913721;28;90615;-66
2022/05/19 16:21:29;;;;;;;1.00;0.28;;;24.40;56.80;;;;;;4911228;28;87838;-65